Time;durP1;ratioP1;P1;durP2;ratioP2;P2;SDS_P1;SDS_P2;PMS_P1;PMS_P2;Temp;Humidity;BMP_temperature;BMP_pressure;BME280_temperature;BME280_humidity;BME280_pressure;Samples;Min_cycle;Max_cycle;Signal;HPM_P1;HPM_P2
2021/04/28 00:01:23;;;;;;;14.73;13.30;;;8.70;87.20;;;;;;5049932;28;20064;-67
2021/04/28 00:03:50;;;;;;;15.25;13.20;;;8.70;87.50;;;;;;5051406;28;20409;-67
2021/04/28 00:06:18;;;;;;;16.30;13.50;;;8.70;88.00;;;;;;5048138;28;20416;-67
2021/04/28 00:08:45;;;;;;;13.90;12.50;;;8.70;88.10;;;;;;5051520;28;20053;-67
2021/04/28 00:11:12;;;;;;;19.45;13.57;;;8.60;88.20;;;;;;5050204;28;20511;-67
2021/04/28 00:13:39;;;;;;;15.38;13.90;;;8.60;88.90;;;;;;5051390;28;20098;-67
2021/04/28 00:16:06;;;;;;;15.02;13.60;;;8.50;89.60;;;;;;5050106;28;20072;-67
2021/04/28 00:18:33;;;;;;;15.18;12.88;;;8.50;90.20;;;;;;5050755;28;20045;-67
2021/04/28 00:21:01;;;;;;;14.40;13.18;;;8.50;90.40;;;;;;5038797;28;20049;-67
2021/04/28 00:23:27;;;;;;;14.57;13.25;;;8.40;90.50;;;;;;5048068;28;20069;-67
2021/04/28 00:25:54;;;;;;;16.23;14.05;;;8.40;90.90;;;;;;5045418;28;20471;-67
2021/04/28 00:28:21;;;;;;;15.93;14.43;;;8.40;91.20;;;;;;5049161;28;20049;-67
2021/04/28 00:30:48;;;;;;;15.18;13.68;;;8.40;91.50;;;;;;5043427;28;20358;-67
2021/04/28 00:33:15;;;;;;;15.05;13.65;;;8.40;91.60;;;;;;5054920;28;20459;-67
2021/04/28 00:35:42;;;;;;;21.63;18.15;;;8.40;92.00;;;;;;5054364;28;20071;-67
2021/04/28 00:38:10;;;;;;;16.27;14.57;;;8.30;92.10;;;;;;5052624;28;20079;-67
2021/04/28 00:40:40;;;;;;;15.52;14.02;;;8.30;92.30;;;;;;5039992;28;20049;-67
2021/04/28 00:43:08;;;;;;;16.30;14.68;;;8.30;92.70;;;;;;5085030;28;20037;-67
2021/04/28 00:45:36;;;;;;;15.13;13.63;;;8.30;92.80;;;;;;5054996;28;20045;-67
2021/04/28 00:48:05;;;;;;;16.10;14.13;;;8.20;93.20;;;;;;5053751;28;20045;-67
2021/04/28 00:50:44;;;;;;;16.65;13.75;;;8.20;93.40;;;;;;5052436;28;20053;-68
2021/04/28 00:53:23;;;;;;;15.20;13.60;;;8.10;93.60;;;;;;5053763;28;20466;-67
2021/04/28 00:55:51;;;;;;;17.10;13.82;;;8.10;94.10;;;;;;5053622;28;20057;-67
2021/04/28 00:58:19;;;;;;;16.30;14.70;;;8.10;94.40;;;;;;5055397;28;20056;-67
2021/04/28 01:00:47;;;;;;;15.10;13.52;;;8.10;94.60;;;;;;5054036;28;20152;-67
2021/04/28 01:03:14;;;;;;;15.10;13.60;;;8.00;95.00;;;;;;5055335;28;20041;-67
2021/04/28 01:05:41;;;;;;;15.23;13.63;;;8.00;95.30;;;;;;5054857;28;20072;-67
2021/04/28 01:08:09;;;;;;;14.90;13.40;;;8.00;95.30;;;;;;5053959;28;20128;-67
2021/04/28 01:10:36;;;;;;;14.57;13.27;;;8.00;95.80;;;;;;5050916;28;20057;-67
2021/04/28 01:13:07;;;;;;;14.98;13.50;;;8.00;95.90;;;;;;5053388;28;20360;-67
2021/04/28 01:15:35;;;;;;;14.52;13.18;;;8.00;96.20;;;;;;5035451;28;20110;-68
2021/04/28 01:18:14;;;;;;;14.63;13.25;;;7.90;96.50;;;;;;5052156;28;20057;-67
2021/04/28 01:20:42;;;;;;;15.50;14.10;;;7.90;97.20;;;;;;5042433;28;20160;-67
2021/04/28 01:23:10;;;;;;;15.18;13.60;;;7.90;97.40;;;;;;5053186;28;20048;-67
2021/04/28 01:25:45;;;;;;;15.02;13.57;;;7.90;97.50;;;;;;5052839;28;20103;-67
2021/04/28 01:28:23;;;;;;;15.25;13.60;;;7.80;98.00;;;;;;5051630;28;20106;-68
2021/04/28 01:31:02;;;;;;;16.00;13.90;;;7.80;98.30;;;;;;5051379;28;20140;-68
2021/04/28 01:33:41;;;;;;;14.93;13.60;;;7.80;98.70;;;;;;5051756;28;20151;-67
2021/04/28 01:36:20;;;;;;;14.90;13.40;;;7.70;99.20;;;;;;5052122;28;20067;-68
2021/04/28 01:38:55;;;;;;;15.23;13.48;;;7.70;99.40;;;;;;5054041;28;20056;-67
2021/04/28 01:41:25;;;;;;;15.48;13.93;;;7.70;99.90;;;;;;5044654;28;20470;-67
2021/04/28 01:43:56;;;;;;;15.60;14.00;;;7.70;99.90;;;;;;5055177;28;20491;-68
2021/04/28 01:46:27;;;;;;;15.52;13.90;;;7.60;99.90;;;;;;5049808;28;20057;-67
2021/04/28 01:48:56;;;;;;;16.15;14.07;;;7.50;99.90;;;;;;5051872;28;20051;-68
2021/04/28 01:51:30;;;;;;;15.75;13.98;;;7.50;99.90;;;;;;5043229;28;20124;-67
2021/04/28 01:53:58;;;;;;;15.43;13.82;;;7.50;99.90;;;;;;5051903;28;20572;-67
2021/04/28 01:56:26;;;;;;;15.05;13.57;;;7.50;99.90;;;;;;5050085;28;20530;-67
2021/04/28 01:59:18;;;;;;;15.32;13.73;;;7.40;99.90;;;;;;5051258;28;20053;-67
2021/04/28 02:02:04;;;;;;;15.95;14.30;;;7.40;99.90;;;;;;5050786;28;20048;-67
2021/04/28 02:04:42;;;;;;;15.75;14.18;;;7.30;99.90;;;;;;5052280;28;20045;-67
2021/04/28 02:07:10;;;;;;;15.25;13.50;;;7.30;99.90;;;;;;5051714;28;20511;-67
2021/04/28 02:09:37;;;;;;;18.27;14.52;;;7.20;99.90;;;;;;5053687;28;20514;-67
2021/04/28 02:12:11;;;;;;;15.13;13.73;;;7.20;99.90;;;;;;5049107;28;20124;-68
2021/04/28 02:14:40;;;;;;;14.70;13.30;;;7.20;99.90;;;;;;5050879;28;20052;-67
2021/04/28 02:17:19;;;;;;;16.05;14.55;;;7.10;99.90;;;;;;5050227;28;20059;-67
2021/04/28 02:19:48;;;;;;;16.23;14.70;;;7.10;99.90;;;;;;5050758;28;20170;-67
2021/04/28 02:22:16;;;;;;;16.08;14.48;;;7.10;99.90;;;;;;5050134;28;20505;-67
2021/04/28 02:24:49;;;;;;;16.45;14.82;;;7.10;99.90;;;;;;5051198;28;20049;-68
2021/04/28 02:27:29;;;;;;;18.50;15.20;;;7.00;99.90;;;;;;5045971;28;20105;-67
2021/04/28 02:29:56;;;;;;;18.00;14.73;;;7.00;99.90;;;;;;5049011;28;20044;-67
2021/04/28 02:32:24;;;;;;;16.33;14.63;;;6.90;99.90;;;;;;5044788;28;20041;-67
2021/04/28 02:35:12;;;;;;;16.50;14.13;;;6.90;99.90;;;;;;5049722;28;20045;-67
2021/04/28 02:37:54;;;;;;;15.43;13.93;;;6.90;99.90;;;;;;5049739;28;20487;-67
2021/04/28 02:40:42;;;;;;;15.50;14.10;;;6.80;99.90;;;;;;5050656;28;20079;-66
2021/04/28 02:43:13;;;;;;;16.20;14.50;;;6.80;99.90;;;;;;5051549;28;20049;-67
2021/04/28 02:45:46;;;;;;;16.52;14.75;;;6.80;99.90;;;;;;5048632;28;20049;-67
2021/04/28 02:48:16;;;;;;;16.83;15.18;;;6.80;99.90;;;;;;5039156;28;20116;-67
2021/04/28 02:51:04;;;;;;;16.20;14.60;;;6.80;99.90;;;;;;5051836;28;20102;-67
2021/04/28 02:53:32;;;;;;;16.58;14.88;;;6.80;99.90;;;;;;5051279;28;20446;-67
2021/04/28 02:56:01;;;;;;;17.20;15.52;;;6.70;99.90;;;;;;5050102;28;20080;-67
2021/04/28 02:58:31;;;;;;;16.92;15.10;;;6.70;99.90;;;;;;5050490;28;20075;-66
2021/04/28 03:01:05;;;;;;;16.10;14.43;;;6.70;99.90;;;;;;5049092;28;20124;-67
2021/04/28 03:03:33;;;;;;;16.83;15.23;;;6.70;99.90;;;;;;5049149;28;20089;-67
2021/04/28 03:06:10;;;;;;;16.33;14.73;;;6.70;99.90;;;;;;5048581;28;20033;-67
2021/04/28 03:09:05;;;;;;;17.15;15.40;;;6.70;99.90;;;;;;5043506;28;20049;-67
2021/04/28 03:11:34;;;;;;;16.67;14.85;;;6.70;99.90;;;;;;5049185;28;20129;-67
2021/04/28 03:14:13;;;;;;;17.23;15.43;;;6.60;99.90;;;;;;5050218;28;20167;-66
2021/04/28 03:16:41;;;;;;;18.38;15.23;;;6.70;99.90;;;;;;5049023;28;20056;-68
2021/04/28 03:19:09;;;;;;;17.25;15.45;;;6.60;99.90;;;;;;5084689;28;20056;-68
2021/04/28 03:21:42;;;;;;;18.17;16.10;;;6.60;99.90;;;;;;5050557;28;20492;-67
2021/04/28 03:24:11;;;;;;;16.35;14.65;;;6.60;99.90;;;;;;5067624;28;20044;-67
2021/04/28 03:26:40;;;;;;;16.08;14.57;;;6.60;99.90;;;;;;5050313;28;20084;-68
2021/04/28 03:29:07;;;;;;;17.02;15.43;;;6.60;99.90;;;;;;5049388;28;20037;-68
2021/04/28 03:31:36;;;;;;;20.52;15.82;;;6.60;99.90;;;;;;5043060;28;20053;-67
2021/04/28 03:34:06;;;;;;;17.08;15.27;;;6.60;99.90;;;;;;5049298;28;20048;-67
2021/04/28 03:36:34;;;;;;;17.88;15.98;;;6.60;99.90;;;;;;5047873;28;20095;-67
2021/04/28 03:39:10;;;;;;;16.80;15.00;;;6.60;99.90;;;;;;5040733;28;20048;-67
2021/04/28 03:41:38;;;;;;;17.33;15.52;;;6.50;99.90;;;;;;5049532;28;20040;-68
2021/04/28 03:44:05;;;;;;;16.60;14.90;;;6.40;99.90;;;;;;5035152;28;20047;-67
2021/04/28 03:46:33;;;;;;;17.20;15.40;;;6.40;99.90;;;;;;5049717;28;20044;-67
2021/04/28 03:49:01;;;;;;;17.45;15.75;;;6.30;99.90;;;;;;5033812;28;20048;-67
2021/04/28 03:51:28;;;;;;;17.45;15.68;;;6.30;99.90;;;;;;5032400;28;20053;-68
2021/04/28 03:54:14;;;;;;;21.35;15.68;;;6.30;99.90;;;;;;5049623;28;20070;-67
2021/04/28 03:56:43;;;;;;;16.48;14.88;;;6.30;99.90;;;;;;5048923;28;20144;-67
2021/04/28 03:59:12;;;;;;;20.30;15.82;;;6.40;99.90;;;;;;5051186;28;20056;-68
2021/04/28 04:01:40;;;;;;;17.55;15.02;;;6.40;99.90;;;;;;5051498;28;20041;-67
2021/04/28 04:04:09;;;;;;;19.08;15.25;;;6.40;99.90;;;;;;5050243;28;20044;-67
2021/04/28 04:06:56;;;;;;;18.10;16.17;;;6.40;99.90;;;;;;5043805;28;20091;-66
2021/04/28 04:09:38;;;;;;;20.13;16.77;;;6.40;99.90;;;;;;5051879;28;20459;-68
2021/04/28 04:12:06;;;;;;;17.30;15.38;;;6.40;99.90;;;;;;5048500;28;20121;-68
2021/04/28 04:14:39;;;;;;;18.10;16.30;;;6.40;99.90;;;;;;5034310;28;20128;-68
2021/04/28 04:17:08;;;;;;;17.85;16.05;;;6.40;99.90;;;;;;5063005;28;20407;-68
2021/04/28 04:19:36;;;;;;;20.25;16.83;;;6.40;99.90;;;;;;5048479;28;20399;-67
2021/04/28 04:22:13;;;;;;;17.33;15.52;;;6.50;99.90;;;;;;5047788;28;20060;-67
2021/04/28 04:24:53;;;;;;;19.58;16.15;;;6.50;99.90;;;;;;5048104;28;20041;-68
2021/04/28 04:27:20;;;;;;;18.42;16.63;;;6.50;99.90;;;;;;5049723;28;20057;-66
2021/04/28 04:30:17;;;;;;;18.52;16.60;;;6.60;99.90;;;;;;5040551;28;20499;-67
2021/04/28 04:33:03;;;;;;;18.92;16.55;;;6.60;99.90;;;;;;5048647;28;20047;-67
2021/04/28 04:35:48;;;;;;;17.88;16.08;;;6.70;99.90;;;;;;5031645;28;20119;-68
2021/04/28 04:38:38;;;;;;;19.25;16.70;;;6.70;99.90;;;;;;5040900;28;20048;-67
2021/04/28 04:41:37;;;;;;;19.15;16.90;;;6.80;99.90;;;;;;5007017;28;20050;-68
2021/04/28 04:44:14;;;;;;;17.92;15.63;;;6.90;99.90;;;;;;4990526;28;20157;-67
2021/04/28 04:46:56;;;;;;;18.15;16.25;;;6.90;99.90;;;;;;4988642;28;20050;-67
2021/04/28 04:49:23;;;;;;;18.10;16.30;;;7.00;99.90;;;;;;5008800;28;20048;-68
2021/04/28 04:51:49;;;;;;;18.77;16.80;;;7.00;99.90;;;;;;4997768;28;20061;-67
2021/04/28 04:54:17;;;;;;;21.75;17.75;;;7.10;99.90;;;;;;5006994;28;20047;-67
2021/04/28 04:56:44;;;;;;;18.88;16.77;;;7.20;99.90;;;;;;5008012;28;20095;-67
2021/04/28 04:59:13;;;;;;;18.52;16.58;;;7.20;99.90;;;;;;5007811;28;20124;-67
2021/04/28 05:01:40;;;;;;;18.88;17.08;;;7.20;99.90;;;;;;5008359;28;20054;-67
2021/04/28 05:04:06;;;;;;;18.10;16.20;;;7.30;99.90;;;;;;5009123;28;20055;-67
2021/04/28 05:06:33;;;;;;;18.67;16.58;;;7.30;99.90;;;;;;5008292;28;20378;-68
2021/04/28 05:09:00;;;;;;;19.17;17.08;;;7.40;99.90;;;;;;5008262;28;20107;-67
2021/04/28 05:11:27;;;;;;;18.75;16.77;;;7.40;99.90;;;;;;5007283;28;20057;-68
2021/04/28 05:13:54;;;;;;;20.80;17.77;;;7.40;99.90;;;;;;5008008;28;20053;-67
2021/04/28 05:16:21;;;;;;;18.77;16.90;;;7.50;99.90;;;;;;5003880;28;20058;-67
2021/04/28 05:18:49;;;;;;;19.42;17.42;;;7.50;99.90;;;;;;5054186;28;20049;-68
2021/04/28 05:21:16;;;;;;;19.50;17.55;;;7.60;99.90;;;;;;5050404;28;20143;-68
2021/04/28 05:23:43;;;;;;;18.73;16.80;;;7.70;99.90;;;;;;5053601;28;20408;-68
2021/04/28 05:26:29;;;;;;;19.63;17.52;;;7.70;99.90;;;;;;5049935;28;20045;-67
2021/04/28 05:28:56;;;;;;;21.35;18.02;;;7.80;99.90;;;;;;5052993;28;20069;-67
2021/04/28 05:31:23;;;;;;;21.48;17.38;;;8.00;99.90;;;;;;5052995;28;20098;-67
2021/04/28 05:33:50;;;;;;;19.73;17.73;;;8.00;99.90;;;;;;5052552;28;20119;-67
2021/04/28 05:36:17;;;;;;;23.98;18.10;;;8.10;99.90;;;;;;5045723;28;20084;-67
2021/04/28 05:38:44;;;;;;;19.73;17.58;;;8.20;99.90;;;;;;5051503;28;20049;-68
2021/04/28 05:41:11;;;;;;;20.10;18.08;;;8.30;99.90;;;;;;5051506;28;20049;-68
2021/04/28 05:43:38;;;;;;;19.10;17.17;;;8.30;99.90;;;;;;5053149;28;20049;-68
2021/04/28 05:46:06;;;;;;;24.50;18.95;;;8.40;99.90;;;;;;5050266;28;20052;-68
2021/04/28 05:48:33;;;;;;;19.52;17.50;;;8.50;99.90;;;;;;5044999;28;20044;-67
2021/04/28 05:51:00;;;;;;;20.48;18.17;;;8.50;99.90;;;;;;5053324;28;20049;-66
2021/04/28 05:53:27;;;;;;;20.55;17.90;;;8.60;99.90;;;;;;5050765;28;20053;-67
2021/04/28 05:55:53;;;;;;;20.13;18.00;;;8.60;99.90;;;;;;5045191;28;20059;-67
2021/04/28 05:58:20;;;;;;;22.25;18.23;;;8.70;99.90;;;;;;5046146;28;20056;-67
2021/04/28 06:00:47;;;;;;;22.73;18.05;;;8.70;99.90;;;;;;5042283;28;20050;-67
2021/04/28 06:03:14;;;;;;;20.45;18.27;;;8.80;99.90;;;;;;5046476;28;20114;-67
2021/04/28 06:05:41;;;;;;;19.67;17.65;;;8.80;99.90;;;;;;5044513;28;20052;-68
2021/04/28 06:08:08;;;;;;;23.75;18.42;;;8.90;99.90;;;;;;5053060;28;20049;-67
2021/04/28 06:10:35;;;;;;;19.48;17.45;;;8.90;99.90;;;;;;5053063;28;20045;-67
2021/04/28 06:13:02;;;;;;;20.70;18.00;;;9.00;99.90;;;;;;5051500;28;20123;-67
2021/04/28 06:15:29;;;;;;;20.60;18.00;;;9.10;99.90;;;;;;5051701;28;20525;-67
2021/04/28 06:17:56;;;;;;;20.10;18.00;;;9.20;99.90;;;;;;5044675;28;20114;-68
2021/04/28 06:20:23;;;;;;;20.55;17.13;;;9.30;99.90;;;;;;5051831;28;20129;-68
2021/04/28 06:22:50;;;;;;;18.38;16.58;;;9.40;99.90;;;;;;5052480;28;20041;-68
2021/04/28 06:25:17;;;;;;;20.00;18.08;;;9.50;99.90;;;;;;5052500;28;20041;-68
2021/04/28 06:27:44;;;;;;;19.55;17.63;;;9.60;99.90;;;;;;5052004;28;20135;-67
2021/04/28 06:30:12;;;;;;;18.67;16.25;;;9.60;99.90;;;;;;5052211;28;20049;-68
2021/04/28 06:32:39;;;;;;;22.13;19.35;;;9.70;99.90;;;;;;5052156;28;20052;-68
2021/04/28 06:35:08;;;;;;;19.63;17.27;;;9.80;99.90;;;;;;5052576;28;20049;-67
2021/04/28 06:37:37;;;;;;;19.48;17.50;;;9.90;99.90;;;;;;5047938;28;20049;-68
2021/04/28 06:40:08;;;;;;;24.15;19.10;;;10.00;99.90;;;;;;5043255;28;20111;-67
2021/04/28 06:42:36;;;;;;;20.13;16.98;;;10.10;99.90;;;;;;5043376;28;20049;-67
2021/04/28 06:45:04;;;;;;;17.45;15.38;;;10.10;99.90;;;;;;5053257;28;20094;-68
2021/04/28 06:47:31;;;;;;;20.35;17.95;;;10.20;99.90;;;;;;5050269;28;20057;-68
2021/04/28 06:49:58;;;;;;;20.45;17.63;;;10.30;99.90;;;;;;5051463;28;20033;-68
2021/04/28 06:52:25;;;;;;;18.77;16.77;;;10.40;99.90;;;;;;5052061;28;20049;-68
2021/04/28 06:54:51;;;;;;;18.70;16.70;;;10.40;99.90;;;;;;5044894;28;20095;-68
2021/04/28 06:57:18;;;;;;;20.25;17.20;;;10.50;99.90;;;;;;5049281;28;20122;-69
2021/04/28 06:59:45;;;;;;;18.20;16.20;;;10.60;99.90;;;;;;5052297;28;20064;-68
2021/04/28 07:02:12;;;;;;;17.77;16.00;;;10.70;99.90;;;;;;5049585;28;20045;-68
2021/04/28 07:04:41;;;;;;;19.50;17.40;;;10.70;99.90;;;;;;5051122;28;20049;-69
2021/04/28 07:07:08;;;;;;;20.95;16.55;;;10.90;99.90;;;;;;5051749;28;20385;-68
2021/04/28 07:09:35;;;;;;;17.98;16.27;;;11.00;99.90;;;;;;5052226;28;20053;-68
2021/04/28 07:12:02;;;;;;;18.65;16.60;;;11.10;99.90;;;;;;5049375;28;20519;-69
2021/04/28 07:14:30;;;;;;;18.85;16.75;;;11.20;99.90;;;;;;5051015;28;20064;-68
2021/04/28 07:16:57;;;;;;;17.80;15.70;;;11.30;99.90;;;;;;5050771;28;20466;-68
2021/04/28 07:19:24;;;;;;;22.55;17.55;;;11.40;99.90;;;;;;5044958;28;20069;-67
2021/04/28 07:21:51;;;;;;;18.30;16.58;;;11.60;99.90;;;;;;5050947;28;20470;-67
2021/04/28 07:24:17;;;;;;;21.15;17.13;;;11.70;99.90;;;;;;5050471;28;20076;-67
2021/04/28 07:26:45;;;;;;;19.05;15.65;;;11.80;99.90;;;;;;5050698;28;20454;-67
2021/04/28 07:29:12;;;;;;;16.73;15.05;;;11.90;99.90;;;;;;5051328;28;20045;-68
2021/04/28 07:31:38;;;;;;;18.13;16.23;;;12.10;99.90;;;;;;5034393;28;20499;-68
2021/04/28 07:34:05;;;;;;;20.17;17.20;;;12.20;99.90;;;;;;5044512;28;20102;-68
2021/04/28 07:36:32;;;;;;;16.88;15.25;;;12.40;99.90;;;;;;5050291;28;20056;-68
2021/04/28 07:38:59;;;;;;;16.42;14.82;;;12.50;99.90;;;;;;5048007;28;20132;-67
2021/04/28 07:41:26;;;;;;;24.38;15.02;;;12.70;99.90;;;;;;5049872;28;20049;-68
2021/04/28 07:44:04;;;;;;;16.73;15.05;;;12.90;99.90;;;;;;5047785;28;20127;-68
2021/04/28 07:46:33;;;;;;;18.60;15.07;;;13.00;99.90;;;;;;5048795;28;20076;-68
2021/04/28 07:49:04;;;;;;;16.25;14.55;;;13.20;99.90;;;;;;5050035;28;20059;-68
2021/04/28 07:51:35;;;;;;;16.27;14.43;;;13.30;99.90;;;;;;5051023;28;20041;-67
2021/04/28 07:54:09;;;;;;;15.68;14.27;;;13.40;99.90;;;;;;5050450;28;20113;-68
2021/04/28 07:56:36;;;;;;;16.27;14.57;;;13.50;99.90;;;;;;5049303;28;20122;-67
2021/04/28 07:59:04;;;;;;;15.23;13.73;;;13.70;99.90;;;;;;5049642;28;20044;-67
2021/04/28 08:01:31;;;;;;;16.27;14.63;;;13.80;99.90;;;;;;5045203;28;20407;-67
2021/04/28 08:03:59;;;;;;;16.10;14.50;;;13.90;99.90;;;;;;5049797;28;20045;-68
2021/04/28 08:06:26;;;;;;;15.63;14.10;;;14.00;99.90;;;;;;5049645;28;20041;-67
2021/04/28 08:08:53;;;;;;;15.82;14.13;;;14.10;99.90;;;;;;5042422;28;20061;-68
2021/04/28 08:11:20;;;;;;;16.13;13.93;;;14.20;99.90;;;;;;5044812;28;20060;-68
2021/04/28 08:13:48;;;;;;;14.95;13.55;;;14.30;99.90;;;;;;5048428;28;20403;-68
2021/04/28 08:16:15;;;;;;;16.88;14.52;;;14.40;99.90;;;;;;5050617;28;20526;-68
2021/04/28 08:18:42;;;;;;;15.77;14.25;;;14.50;99.90;;;;;;5048931;28;20080;-68
2021/04/28 08:21:09;;;;;;;15.68;14.18;;;14.60;99.90;;;;;;5051036;28;20041;-68
2021/04/28 08:23:41;;;;;;;15.52;14.02;;;14.70;99.50;;;;;;5049721;28;20080;-68
2021/04/28 08:26:09;;;;;;;19.35;14.57;;;14.90;99.20;;;;;;5050748;28;20045;-68
2021/04/28 08:28:41;;;;;;;18.23;14.27;;;14.90;98.70;;;;;;5045215;28;20144;-67
2021/04/28 08:31:09;;;;;;;19.42;14.43;;;15.00;98.10;;;;;;5040779;28;20129;-68
2021/04/28 08:33:38;;;;;;;15.43;13.90;;;15.00;98.00;;;;;;5047772;28;20059;-67
2021/04/28 08:36:06;;;;;;;19.65;13.68;;;15.20;97.70;;;;;;5043578;28;20048;-68
2021/04/28 08:38:37;;;;;;;14.85;13.38;;;15.30;97.20;;;;;;5050740;28;20053;-68
2021/04/28 08:41:06;;;;;;;15.25;13.57;;;15.40;97.00;;;;;;5045346;28;20037;-67
2021/04/28 08:43:33;;;;;;;14.25;12.70;;;15.50;96.50;;;;;;5045402;28;20134;-67
2021/04/28 08:46:01;;;;;;;15.63;14.00;;;15.70;96.20;;;;;;5046860;28;20595;-67
2021/04/28 08:48:32;;;;;;;14.98;13.57;;;15.80;95.50;;;;;;5049526;28;20372;-68
2021/04/28 08:51:00;;;;;;;16.40;13.98;;;16.00;94.90;;;;;;5051338;28;21468;-68
2021/04/28 08:53:36;;;;;;;14.93;13.38;;;16.10;94.40;;;;;;5053796;28;20084;-66
2021/04/28 08:56:07;;;;;;;14.65;13.07;;;16.20;93.80;;;;;;5048189;28;20046;-67
2021/04/28 08:58:35;;;;;;;14.73;13.23;;;16.20;93.70;;;;;;5051957;28;20081;-68
2021/04/28 09:01:04;;;;;;;14.98;13.30;;;16.30;92.50;;;;;;5048238;28;20099;-67
2021/04/28 09:03:42;;;;;;;18.48;14.05;;;16.40;92.40;;;;;;5052587;28;20156;-66
2021/04/28 09:06:34;;;;;;;15.43;13.52;;;16.50;92.20;;;;;;5051108;28;20076;-67
2021/04/28 09:09:09;;;;;;;15.10;13.27;;;16.60;91.80;;;;;;5052267;28;20106;-67
2021/04/28 09:11:49;;;;;;;14.85;13.25;;;16.70;91.10;;;;;;5050684;28;20049;-67
2021/04/28 09:14:28;;;;;;;15.15;13.48;;;16.80;90.40;;;;;;5052938;28;20136;-67
2021/04/28 09:16:55;;;;;;;14.77;13.25;;;16.90;90.00;;;;;;5053798;28;20057;-67
2021/04/28 09:19:45;;;;;;;14.73;13.32;;;17.00;88.10;;;;;;5053607;28;20131;-67
2021/04/28 09:22:30;;;;;;;15.27;13.88;;;17.10;86.70;;;;;;5053594;28;20076;-67
2021/04/28 09:25:48;;;;;;;14.48;13.10;;;17.30;85.20;;;;;;5045574;28;20110;-68
2021/04/28 09:28:52;;;;;;;15.25;13.80;;;17.40;84.20;;;;;;5046658;28;20499;-67
2021/04/28 09:31:20;;;;;;;15.15;13.75;;;17.60;80.90;;;;;;5047594;28;20508;-67
2021/04/28 09:33:49;;;;;;;14.93;13.43;;;17.60;80.30;;;;;;5050843;28;20095;-67
2021/04/28 09:36:33;;;;;;;15.75;14.27;;;17.70;81.20;;;;;;5033536;28;20053;-68
2021/04/28 09:39:07;;;;;;;14.75;13.45;;;17.80;80.30;;;;;;5050077;28;20068;-67
2021/04/28 09:42:01;;;;;;;15.27;13.75;;;17.90;78.90;;;;;;5050923;28;20230;-67
2021/04/28 09:44:31;;;;;;;15.25;13.73;;;18.00;76.80;;;;;;5050197;28;20131;-66
2021/04/28 09:47:01;;;;;;;14.43;13.10;;;18.10;75.80;;;;;;5049431;28;20128;-66
2021/04/28 09:49:43;;;;;;;20.58;13.85;;;18.20;76.20;;;;;;5051144;28;20641;-67
2021/04/28 09:52:10;;;;;;;15.30;13.75;;;18.20;76.10;;;;;;5050497;28;20057;-67
2021/04/28 09:54:37;;;;;;;14.40;13.18;;;18.40;74.00;;;;;;5049025;28;20080;-68
2021/04/28 09:57:04;;;;;;;14.82;13.43;;;18.50;72.90;;;;;;5050060;28;20053;-67
2021/04/28 09:59:43;;;;;;;15.40;13.82;;;18.60;71.80;;;;;;5049934;28;20060;-68
2021/04/28 10:02:30;;;;;;;15.30;13.70;;;18.80;71.10;;;;;;5050444;28;20091;-67
2021/04/28 10:05:17;;;;;;;15.40;14.05;;;18.80;70.20;;;;;;5050105;28;20060;-65
2021/04/28 10:08:23;;;;;;;14.45;13.23;;;18.80;70.20;;;;;;5048422;28;20052;-67
2021/04/28 10:10:52;;;;;;;15.88;14.18;;;18.80;69.50;;;;;;5046158;28;20049;-66
2021/04/28 10:13:20;;;;;;;15.32;13.85;;;18.80;68.20;;;;;;5050577;28;20553;-67
2021/04/28 10:15:47;;;;;;;17.02;15.20;;;18.90;68.30;;;;;;5052975;28;20048;-66
2021/04/28 10:18:16;;;;;;;14.93;13.60;;;19.10;67.40;;;;;;5053544;28;20053;-66
2021/04/28 10:20:45;;;;;;;15.02;13.77;;;19.30;66.30;;;;;;5039322;28;20458;-66
2021/04/28 10:23:17;;;;;;;15.50;14.00;;;19.50;65.70;;;;;;5048199;28;20045;-68
2021/04/28 10:25:49;;;;;;;15.98;14.43;;;19.70;65.30;;;;;;5052422;28;20049;-67
2021/04/28 10:28:21;;;;;;;15.75;14.13;;;19.80;64.80;;;;;;5052589;28;20067;-66
2021/04/28 10:30:49;;;;;;;15.60;14.20;;;19.90;64.40;;;;;;5048274;28;20042;-67
2021/04/28 10:33:19;;;;;;;15.15;13.55;;;20.10;64.20;;;;;;5047413;28;20124;-66
2021/04/28 10:35:47;;;;;;;14.98;13.55;;;20.20;64.80;;;;;;5049173;28;20446;-67
2021/04/28 10:38:27;;;;;;;15.20;13.40;;;20.50;64.80;;;;;;5050882;28;20056;-67
2021/04/28 10:40:54;;;;;;;15.73;13.95;;;20.60;63.10;;;;;;5038442;28;20049;-66
2021/04/28 10:43:38;;;;;;;15.73;14.32;;;20.60;63.20;;;;;;5036567;28;20045;-67
2021/04/28 10:46:22;;;;;;;16.35;14.60;;;20.70;62.60;;;;;;5050240;28;20041;-67
2021/04/28 10:49:17;;;;;;;15.93;14.38;;;20.70;62.50;;;;;;5052214;28;20444;-67
2021/04/28 10:51:47;;;;;;;14.52;13.05;;;20.50;63.20;;;;;;5041521;28;20057;-67
2021/04/28 10:54:24;;;;;;;15.87;13.57;;;20.80;63.40;;;;;;5050861;28;20106;-67
2021/04/28 10:57:05;;;;;;;14.65;13.25;;;21.10;62.80;;;;;;5052786;28;20231;-67
2021/04/28 10:59:41;;;;;;;14.18;12.93;;;21.30;62.70;;;;;;5050849;28;20053;-67
2021/04/28 11:02:14;;;;;;;14.38;12.23;;;21.60;63.20;;;;;;5043037;28;20095;-67
2021/04/28 11:04:47;;;;;;;16.08;14.07;;;21.90;63.10;;;;;;5051074;28;20529;-67
2021/04/28 11:07:43;;;;;;;17.27;13.52;;;22.30;62.90;;;;;;5047493;28;20061;-67
2021/04/28 11:10:35;;;;;;;15.25;13.40;;;22.60;61.60;;;;;;5050342;28;20099;-67
2021/04/28 11:13:07;;;;;;;14.57;13.18;;;23.00;60.80;;;;;;5050807;28;20081;-68
2021/04/28 11:15:53;;;;;;;16.13;14.48;;;23.10;60.90;;;;;;5041510;28;20388;-68
2021/04/28 11:18:34;;;;;;;14.95;13.52;;;22.90;59.90;;;;;;5050828;28;20132;-67
2021/04/28 11:21:17;;;;;;;17.17;15.38;;;23.10;59.70;;;;;;5051833;28;20463;-67
2021/04/28 11:24:06;;;;;;;14.70;13.40;;;23.60;59.60;;;;;;5048654;28;20037;-68
2021/04/28 11:26:39;;;;;;;14.30;13.10;;;23.80;58.90;;;;;;5050915;28;20052;-67
2021/04/28 11:29:07;;;;;;;14.73;13.30;;;24.20;58.90;;;;;;5050671;28;20630;-67
2021/04/28 11:31:53;;;;;;;13.63;12.45;;;24.30;58.60;;;;;;5049232;28;20056;-68
2021/04/28 11:34:26;;;;;;;16.13;14.48;;;24.50;57.70;;;;;;5050793;28;20063;-67
2021/04/28 11:37:02;;;;;;;14.48;13.18;;;24.60;57.20;;;;;;5051043;28;20052;-68
2021/04/28 11:39:41;;;;;;;14.48;13.18;;;24.50;57.10;;;;;;5038487;28;20084;-68
2021/04/28 11:42:17;;;;;;;13.20;12.00;;;24.20;57.10;;;;;;5050841;28;20085;-68
2021/04/28 11:44:49;;;;;;;14.38;12.95;;;24.60;57.50;;;;;;5047051;28;20514;-68
2021/04/28 11:47:18;;;;;;;14.63;13.27;;;25.30;57.10;;;;;;5050038;28;20079;-68
2021/04/28 11:49:52;;;;;;;15.27;13.52;;;25.70;55.80;;;;;;5050025;28;20060;-67
2021/04/28 11:52:20;;;;;;;14.98;13.48;;;25.90;55.70;;;;;;5050671;28;20609;-67
2021/04/28 11:54:56;;;;;;;14.25;12.75;;;26.20;55.50;;;;;;5038081;28;20084;-68
2021/04/28 11:57:28;;;;;;;15.00;13.70;;;26.40;54.90;;;;;;5051105;28;20052;-67
2021/04/28 12:00:06;;;;;;;13.93;12.52;;;26.40;54.70;;;;;;5048353;28;20459;-67
2021/04/28 12:02:34;;;;;;;14.20;13.00;;;26.70;54.30;;;;;;5050136;28;20049;-67
2021/04/28 12:05:01;;;;;;;14.63;13.02;;;27.40;54.30;;;;;;5052501;28;20049;-68
2021/04/28 12:07:28;;;;;;;13.57;12.27;;;27.30;53.20;;;;;;5049574;28;20053;-68
2021/04/28 12:09:55;;;;;;;13.70;12.43;;;27.70;53.00;;;;;;5050627;28;20240;-69
2021/04/28 12:12:32;;;;;;;13.40;12.27;;;28.40;53.00;;;;;;5047028;28;20060;-68
2021/04/28 12:15:05;;;;;;;14.00;12.70;;;28.90;52.60;;;;;;5049806;28;20052;-68
2021/04/28 12:17:37;;;;;;;14.60;13.30;;;29.30;51.00;;;;;;5049278;28;20106;-68
2021/04/28 12:20:07;;;;;;;16.75;15.25;;;29.50;50.30;;;;;;5037568;28;20041;-68
2021/04/28 12:22:34;;;;;;;16.45;14.38;;;29.30;50.00;;;;;;5050149;28;20466;-68
2021/04/28 12:25:07;;;;;;;15.23;13.63;;;29.70;50.40;;;;;;5048358;28;20048;-68
2021/04/28 12:27:35;;;;;;;14.80;13.45;;;30.10;50.30;;;;;;5051055;28;20551;-68
2021/04/28 12:30:13;;;;;;;14.68;13.40;;;30.30;49.10;;;;;;5051761;28;20076;-68
2021/04/28 12:32:49;;;;;;;15.77;14.25;;;30.70;49.30;;;;;;5053626;28;20139;-68
2021/04/28 12:35:25;;;;;;;15.30;13.80;;;30.60;48.40;;;;;;5042133;28;20057;-68
2021/04/28 12:38:08;;;;;;;14.07;12.80;;;30.40;47.50;;;;;;5034722;28;20532;-67
2021/04/28 12:40:55;;;;;;;15.27;13.88;;;29.80;47.90;;;;;;5048101;28;20076;-67
2021/04/28 12:43:38;;;;;;;15.00;13.70;;;28.50;48.10;;;;;;5051016;28;20144;-68
2021/04/28 12:46:08;;;;;;;14.82;13.52;;;27.10;49.10;;;;;;5050700;28;20049;-67
2021/04/28 12:49:05;;;;;;;13.50;12.40;;;26.80;49.10;;;;;;5052506;28;20126;-67
2021/04/28 12:51:34;;;;;;;14.50;13.10;;;27.00;49.40;;;;;;5048740;28;20524;-68
2021/04/28 12:54:04;;;;;;;14.32;13.07;;;27.50;49.10;;;;;;5052988;28;20049;-68
2021/04/28 12:57:03;;;;;;;15.18;13.88;;;27.40;49.00;;;;;;5046194;28;20045;-68
2021/04/28 12:59:32;;;;;;;13.98;12.75;;;27.20;48.30;;;;;;5033925;28;20049;-68